sensor_id;sensor_type;location;lat;lon;timestamp;P1;durP1;ratioP1;P2;durP2;ratioP2
1699;SDS011;847;48.058;7.810;2022-11-10T00:00:32;4.13;;;3.00;;
1699;SDS011;847;48.058;7.810;2022-11-10T00:03:00;3.60;;;3.30;;
1699;SDS011;847;48.058;7.810;2022-11-10T00:05:27;3.73;;;3.00;;
1699;SDS011;847;48.058;7.810;2022-11-10T00:07:54;3.73;;;3.37;;
1699;SDS011;847;48.058;7.810;2022-11-10T00:10:21;4.20;;;3.00;;
1699;SDS011;847;48.058;7.810;2022-11-10T00:12:49;6.10;;;3.20;;
1699;SDS011;847;48.058;7.810;2022-11-10T00:15:16;4.50;;;3.00;;
1699;SDS011;847;48.058;7.810;2022-11-10T00:18:00;4.07;;;3.43;;
1699;SDS011;847;48.058;7.810;2022-11-10T00:20:28;3.87;;;3.33;;
1699;SDS011;847;48.058;7.810;2022-11-10T00:22:54;4.83;;;3.13;;
1699;SDS011;847;48.058;7.810;2022-11-10T00:25:21;3.33;;;3.03;;
1699;SDS011;847;48.058;7.810;2022-11-10T00:27:50;7.23;;;3.50;;
1699;SDS011;847;48.058;7.810;2022-11-10T00:30:17;6.60;;;3.43;;
1699;SDS011;847;48.058;7.810;2022-11-10T00:32:45;4.47;;;3.77;;
1699;SDS011;847;48.058;7.810;2022-11-10T00:35:13;3.90;;;3.60;;
1699;SDS011;847;48.058;7.810;2022-11-10T00:37:40;5.60;;;3.80;;
1699;SDS011;847;48.058;7.810;2022-11-10T00:40:07;4.67;;;4.17;;
1699;SDS011;847;48.058;7.810;2022-11-10T00:42:34;3.63;;;3.30;;
1699;SDS011;847;48.058;7.810;2022-11-10T00:45:03;4.20;;;3.30;;
1699;SDS011;847;48.058;7.810;2022-11-10T00:47:31;3.97;;;3.50;;
1699;SDS011;847;48.058;7.810;2022-11-10T00:49:58;3.57;;;3.27;;
1699;SDS011;847;48.058;7.810;2022-11-10T00:52:24;4.60;;;3.63;;
1699;SDS011;847;48.058;7.810;2022-11-10T00:54:51;4.40;;;3.73;;
1699;SDS011;847;48.058;7.810;2022-11-10T00:57:18;4.40;;;3.87;;
1699;SDS011;847;48.058;7.810;2022-11-10T00:59:45;15.53;;;5.27;;
1699;SDS011;847;48.058;7.810;2022-11-10T01:02:13;4.80;;;4.07;;
1699;SDS011;847;48.058;7.810;2022-11-10T01:04:40;6.77;;;3.90;;
1699;SDS011;847;48.058;7.810;2022-11-10T01:07:06;5.20;;;3.83;;
1699;SDS011;847;48.058;7.810;2022-11-10T01:09:33;3.90;;;3.10;;
1699;SDS011;847;48.058;7.810;2022-11-10T01:12:00;3.97;;;3.57;;
1699;SDS011;847;48.058;7.810;2022-11-10T01:14:27;3.80;;;3.50;;
1699;SDS011;847;48.058;7.810;2022-11-10T01:16:54;4.53;;;3.30;;
1699;SDS011;847;48.058;7.810;2022-11-10T01:19:22;4.17;;;3.77;;
1699;SDS011;847;48.058;7.810;2022-11-10T01:21:49;4.10;;;3.50;;
1699;SDS011;847;48.058;7.810;2022-11-10T01:24:17;3.90;;;3.60;;
1699;SDS011;847;48.058;7.810;2022-11-10T01:26:45;3.53;;;3.20;;
1699;SDS011;847;48.058;7.810;2022-11-10T01:29:12;4.50;;;3.40;;
1699;SDS011;847;48.058;7.810;2022-11-10T01:31:39;4.10;;;3.70;;
1699;SDS011;847;48.058;7.810;2022-11-10T01:34:06;5.13;;;4.37;;
1699;SDS011;847;48.058;7.810;2022-11-10T01:36:34;3.83;;;3.47;;
1699;SDS011;847;48.058;7.810;2022-11-10T01:39:01;4.20;;;3.63;;
1699;SDS011;847;48.058;7.810;2022-11-10T01:41:28;7.43;;;4.03;;
1699;SDS011;847;48.058;7.810;2022-11-10T01:46:37;4.97;;;3.40;;
1699;SDS011;847;48.058;7.810;2022-11-10T01:49:04;5.30;;;4.80;;
1699;SDS011;847;48.058;7.810;2022-11-10T01:51:33;3.63;;;3.33;;
1699;SDS011;847;48.058;7.810;2022-11-10T01:54:07;4.20;;;3.03;;
1699;SDS011;847;48.058;7.810;2022-11-10T01:56:37;3.50;;;3.20;;
1699;SDS011;847;48.058;7.810;2022-11-10T01:59:08;3.50;;;3.20;;
1699;SDS011;847;48.058;7.810;2022-11-10T02:01:38;3.70;;;3.40;;
1699;SDS011;847;48.058;7.810;2022-11-10T02:04:05;3.67;;;3.30;;
1699;SDS011;847;48.058;7.810;2022-11-10T02:06:35;4.10;;;3.23;;
1699;SDS011;847;48.058;7.810;2022-11-10T02:09:06;4.43;;;3.77;;
1699;SDS011;847;48.058;7.810;2022-11-10T02:11:33;4.57;;;4.17;;
1699;SDS011;847;48.058;7.810;2022-11-10T02:14:00;5.87;;;4.10;;
1699;SDS011;847;48.058;7.810;2022-11-10T02:16:27;6.37;;;4.33;;
1699;SDS011;847;48.058;7.810;2022-11-10T02:18:55;3.63;;;3.33;;
1699;SDS011;847;48.058;7.810;2022-11-10T02:21:23;4.00;;;3.60;;
1699;SDS011;847;48.058;7.810;2022-11-10T02:23:51;4.20;;;3.33;;
1699;SDS011;847;48.058;7.810;2022-11-10T02:26:19;3.57;;;3.27;;
1699;SDS011;847;48.058;7.810;2022-11-10T02:28:49;3.97;;;3.47;;
1699;SDS011;847;48.058;7.810;2022-11-10T02:31:16;4.00;;;3.60;;
1699;SDS011;847;48.058;7.810;2022-11-10T02:33:42;4.67;;;3.90;;
1699;SDS011;847;48.058;7.810;2022-11-10T02:36:09;5.17;;;4.43;;
1699;SDS011;847;48.058;7.810;2022-11-10T02:38:38;4.80;;;3.90;;
1699;SDS011;847;48.058;7.810;2022-11-10T02:41:05;5.50;;;4.43;;
1699;SDS011;847;48.058;7.810;2022-11-10T02:43:32;6.17;;;4.17;;
1699;SDS011;847;48.058;7.810;2022-11-10T02:45:59;6.40;;;4.60;;
1699;SDS011;847;48.058;7.810;2022-11-10T02:48:26;6.40;;;4.80;;
1699;SDS011;847;48.058;7.810;2022-11-10T02:50:53;4.27;;;3.87;;
1699;SDS011;847;48.058;7.810;2022-11-10T02:53:20;6.03;;;4.80;;
1699;SDS011;847;48.058;7.810;2022-11-10T02:55:48;5.43;;;4.93;;
1699;SDS011;847;48.058;7.810;2022-11-10T02:58:14;6.20;;;4.80;;
1699;SDS011;847;48.058;7.810;2022-11-10T03:00:41;6.10;;;4.10;;
1699;SDS011;847;48.058;7.810;2022-11-10T03:03:08;7.90;;;4.73;;
1699;SDS011;847;48.058;7.810;2022-11-10T03:05:35;4.63;;;3.80;;
1699;SDS011;847;48.058;7.810;2022-11-10T03:08:02;5.60;;;4.87;;
1699;SDS011;847;48.058;7.810;2022-11-10T03:10:29;7.10;;;4.70;;
1699;SDS011;847;48.058;7.810;2022-11-10T03:12:58;5.50;;;4.63;;
1699;SDS011;847;48.058;7.810;2022-11-10T03:15:26;4.50;;;4.10;;
1699;SDS011;847;48.058;7.810;2022-11-10T03:17:54;4.87;;;4.43;;
1699;SDS011;847;48.058;7.810;2022-11-10T03:20:20;6.30;;;4.70;;
1699;SDS011;847;48.058;7.810;2022-11-10T03:22:47;5.40;;;4.90;;
1699;SDS011;847;48.058;7.810;2022-11-10T03:25:14;4.40;;;4.00;;
1699;SDS011;847;48.058;7.810;2022-11-10T03:27:41;3.90;;;3.50;;
1699;SDS011;847;48.058;7.810;2022-11-10T03:30:09;4.40;;;3.90;;
1699;SDS011;847;48.058;7.810;2022-11-10T03:32:36;5.67;;;4.30;;
1699;SDS011;847;48.058;7.810;2022-11-10T03:35:03;5.20;;;4.40;;
1699;SDS011;847;48.058;7.810;2022-11-10T03:37:30;5.17;;;4.47;;
1699;SDS011;847;48.058;7.810;2022-11-10T03:39:57;5.47;;;4.10;;
1699;SDS011;847;48.058;7.810;2022-11-10T03:42:24;6.00;;;3.50;;
1699;SDS011;847;48.058;7.810;2022-11-10T03:44:50;4.93;;;3.77;;
1699;SDS011;847;48.058;7.810;2022-11-10T03:47:18;5.13;;;4.73;;
1699;SDS011;847;48.058;7.810;2022-11-10T03:49:45;5.70;;;4.40;;
1699;SDS011;847;48.058;7.810;2022-11-10T03:52:12;5.03;;;3.60;;
1699;SDS011;847;48.058;7.810;2022-11-10T03:54:39;3.77;;;3.40;;
1699;SDS011;847;48.058;7.810;2022-11-10T03:57:06;4.97;;;4.37;;
1699;SDS011;847;48.058;7.810;2022-11-10T03:59:33;4.40;;;3.53;;
1699;SDS011;847;48.058;7.810;2022-11-10T04:02:00;6.67;;;3.87;;
1699;SDS011;847;48.058;7.810;2022-11-10T04:04:28;4.20;;;3.60;;
1699;SDS011;847;48.058;7.810;2022-11-10T04:07:12;6.70;;;4.70;;
1699;SDS011;847;48.058;7.810;2022-11-10T04:09:57;6.17;;;4.83;;
1699;SDS011;847;48.058;7.810;2022-11-10T04:12:24;7.00;;;5.23;;
1699;SDS011;847;48.058;7.810;2022-11-10T04:15:09;8.03;;;4.90;;
1699;SDS011;847;48.058;7.810;2022-11-10T04:17:50;7.30;;;4.80;;
1699;SDS011;847;48.058;7.810;2022-11-10T04:20:18;4.83;;;4.43;;
1699;SDS011;847;48.058;7.810;2022-11-10T04:22:45;5.40;;;4.90;;
1699;SDS011;847;48.058;7.810;2022-11-10T04:25:29;4.63;;;4.20;;
1699;SDS011;847;48.058;7.810;2022-11-10T04:28:16;7.10;;;5.53;;
1699;SDS011;847;48.058;7.810;2022-11-10T04:30:43;6.40;;;5.40;;
1699;SDS011;847;48.058;7.810;2022-11-10T04:33:09;7.10;;;4.27;;
1699;SDS011;847;48.058;7.810;2022-11-10T04:35:37;4.83;;;3.57;;
1699;SDS011;847;48.058;7.810;2022-11-10T04:38:04;6.33;;;4.17;;
1699;SDS011;847;48.058;7.810;2022-11-10T04:40:31;5.80;;;3.33;;
1699;SDS011;847;48.058;7.810;2022-11-10T04:42:58;4.57;;;4.10;;
1699;SDS011;847;48.058;7.810;2022-11-10T04:45:24;6.13;;;3.93;;
1699;SDS011;847;48.058;7.810;2022-11-10T04:47:51;7.33;;;4.50;;
1699;SDS011;847;48.058;7.810;2022-11-10T04:50:18;6.37;;;5.30;;
1699;SDS011;847;48.058;7.810;2022-11-10T04:52:46;4.33;;;4.03;;
1699;SDS011;847;48.058;7.810;2022-11-10T04:55:13;5.50;;;4.00;;
1699;SDS011;847;48.058;7.810;2022-11-10T04:57:41;4.67;;;4.17;;
1699;SDS011;847;48.058;7.810;2022-11-10T05:00:08;5.63;;;4.27;;
1699;SDS011;847;48.058;7.810;2022-11-10T05:02:36;5.50;;;4.27;;
1699;SDS011;847;48.058;7.810;2022-11-10T05:05:03;4.90;;;4.50;;
1699;SDS011;847;48.058;7.810;2022-11-10T05:07:30;6.77;;;4.40;;
1699;SDS011;847;48.058;7.810;2022-11-10T05:09:58;5.00;;;4.30;;
1699;SDS011;847;48.058;7.810;2022-11-10T05:12:25;7.23;;;4.03;;
1699;SDS011;847;48.058;7.810;2022-11-10T05:14:52;4.83;;;4.43;;
1699;SDS011;847;48.058;7.810;2022-11-10T05:17:20;6.73;;;4.70;;
1699;SDS011;847;48.058;7.810;2022-11-10T05:19:46;4.90;;;4.50;;
1699;SDS011;847;48.058;7.810;2022-11-10T05:22:13;4.20;;;3.63;;
1699;SDS011;847;48.058;7.810;2022-11-10T05:24:40;4.30;;;3.90;;
1699;SDS011;847;48.058;7.810;2022-11-10T05:27:08;6.43;;;4.30;;
1699;SDS011;847;48.058;7.810;2022-11-10T05:29:35;4.30;;;3.87;;
1699;SDS011;847;48.058;7.810;2022-11-10T05:32:02;10.30;;;5.40;;
1699;SDS011;847;48.058;7.810;2022-11-10T05:34:29;4.07;;;3.30;;
1699;SDS011;847;48.058;7.810;2022-11-10T05:36:58;5.97;;;4.80;;
1699;SDS011;847;48.058;7.810;2022-11-10T05:39:25;4.77;;;3.50;;
1699;SDS011;847;48.058;7.810;2022-11-10T05:41:52;5.20;;;3.60;;
1699;SDS011;847;48.058;7.810;2022-11-10T05:44:20;4.40;;;3.20;;
1699;SDS011;847;48.058;7.810;2022-11-10T05:46:46;5.87;;;3.43;;
1699;SDS011;847;48.058;7.810;2022-11-10T05:49:13;5.00;;;3.70;;
1699;SDS011;847;48.058;7.810;2022-11-10T05:51:40;5.33;;;4.13;;
1699;SDS011;847;48.058;7.810;2022-11-10T05:54:07;5.30;;;4.23;;
1699;SDS011;847;48.058;7.810;2022-11-10T05:56:34;8.53;;;4.27;;
1699;SDS011;847;48.058;7.810;2022-11-10T05:59:00;15.20;;;5.37;;
1699;SDS011;847;48.058;7.810;2022-11-10T06:01:29;16.73;;;7.43;;
1699;SDS011;847;48.058;7.810;2022-11-10T06:03:55;23.03;;;7.23;;
1699;SDS011;847;48.058;7.810;2022-11-10T06:06:24;87.60;;;9.43;;
1699;SDS011;847;48.058;7.810;2022-11-10T06:08:51;153.47;;;10.57;;
1699;SDS011;847;48.058;7.810;2022-11-10T06:11:20;108.27;;;9.33;;
1699;SDS011;847;48.058;7.810;2022-11-10T06:13:47;101.40;;;8.30;;
1699;SDS011;847;48.058;7.810;2022-11-10T06:16:14;85.03;;;7.47;;
1699;SDS011;847;48.058;7.810;2022-11-10T06:18:42;47.00;;;6.57;;
1699;SDS011;847;48.058;7.810;2022-11-10T06:21:08;42.40;;;6.13;;
1699;SDS011;847;48.058;7.810;2022-11-10T06:23:35;14.57;;;6.80;;
1699;SDS011;847;48.058;7.810;2022-11-10T06:26:02;11.67;;;6.73;;
1699;SDS011;847;48.058;7.810;2022-11-10T06:28:29;14.30;;;6.90;;
1699;SDS011;847;48.058;7.810;2022-11-10T06:30:56;8.73;;;7.17;;
1699;SDS011;847;48.058;7.810;2022-11-10T06:33:23;13.40;;;7.60;;
1699;SDS011;847;48.058;7.810;2022-11-10T06:35:51;12.60;;;5.70;;
1699;SDS011;847;48.058;7.810;2022-11-10T06:38:18;8.33;;;5.57;;
1699;SDS011;847;48.058;7.810;2022-11-10T06:40:45;16.73;;;6.73;;
1699;SDS011;847;48.058;7.810;2022-11-10T06:43:11;22.47;;;6.63;;
1699;SDS011;847;48.058;7.810;2022-11-10T06:45:38;23.53;;;7.87;;
1699;SDS011;847;48.058;7.810;2022-11-10T06:48:06;18.80;;;7.43;;
1699;SDS011;847;48.058;7.810;2022-11-10T06:50:35;35.07;;;7.53;;
1699;SDS011;847;48.058;7.810;2022-11-10T06:53:03;60.27;;;8.70;;
1699;SDS011;847;48.058;7.810;2022-11-10T06:55:30;44.87;;;7.90;;
1699;SDS011;847;48.058;7.810;2022-11-10T06:57:57;69.17;;;9.57;;
1699;SDS011;847;48.058;7.810;2022-11-10T07:00:25;47.40;;;9.40;;
1699;SDS011;847;48.058;7.810;2022-11-10T07:02:58;21.07;;;7.50;;
1699;SDS011;847;48.058;7.810;2022-11-10T07:05:25;36.13;;;8.90;;
1699;SDS011;847;48.058;7.810;2022-11-10T07:07:52;18.33;;;7.73;;
1699;SDS011;847;48.058;7.810;2022-11-10T07:10:20;18.53;;;9.97;;
1699;SDS011;847;48.058;7.810;2022-11-10T07:12:47;13.33;;;7.77;;
1699;SDS011;847;48.058;7.810;2022-11-10T07:15:14;8.57;;;7.10;;
1699;SDS011;847;48.058;7.810;2022-11-10T07:17:40;6.93;;;6.20;;
1699;SDS011;847;48.058;7.810;2022-11-10T07:20:07;10.17;;;6.63;;
1699;SDS011;847;48.058;7.810;2022-11-10T07:22:35;8.10;;;6.33;;
1699;SDS011;847;48.058;7.810;2022-11-10T07:25:01;9.07;;;6.70;;
1699;SDS011;847;48.058;7.810;2022-11-10T07:27:30;7.20;;;5.80;;
1699;SDS011;847;48.058;7.810;2022-11-10T07:29:57;6.03;;;5.43;;
1699;SDS011;847;48.058;7.810;2022-11-10T07:32:23;5.53;;;5.00;;
1699;SDS011;847;48.058;7.810;2022-11-10T07:34:50;5.83;;;5.23;;
1699;SDS011;847;48.058;7.810;2022-11-10T07:37:17;10.10;;;9.10;;
1699;SDS011;847;48.058;7.810;2022-11-10T07:39:44;10.80;;;9.13;;
1699;SDS011;847;48.058;7.810;2022-11-10T07:42:10;12.93;;;11.40;;
1699;SDS011;847;48.058;7.810;2022-11-10T07:44:39;14.13;;;12.63;;
1699;SDS011;847;48.058;7.810;2022-11-10T07:47:05;15.20;;;13.00;;
1699;SDS011;847;48.058;7.810;2022-11-10T07:49:32;13.87;;;12.47;;
1699;SDS011;847;48.058;7.810;2022-11-10T07:51:59;16.07;;;14.37;;
1699;SDS011;847;48.058;7.810;2022-11-10T07:54:26;14.40;;;13.03;;
1699;SDS011;847;48.058;7.810;2022-11-10T07:56:52;13.00;;;11.70;;
1699;SDS011;847;48.058;7.810;2022-11-10T07:59:19;17.40;;;15.70;;
1699;SDS011;847;48.058;7.810;2022-11-10T08:01:47;16.33;;;14.63;;
1699;SDS011;847;48.058;7.810;2022-11-10T08:04:14;13.57;;;12.27;;
1699;SDS011;847;48.058;7.810;2022-11-10T08:06:41;12.70;;;11.50;;
1699;SDS011;847;48.058;7.810;2022-11-10T08:09:08;12.50;;;11.20;;
1699;SDS011;847;48.058;7.810;2022-11-10T08:11:35;8.60;;;7.80;;
1699;SDS011;847;48.058;7.810;2022-11-10T08:14:01;8.70;;;7.20;;
1699;SDS011;847;48.058;7.810;2022-11-10T08:16:28;7.80;;;7.10;;
1699;SDS011;847;48.058;7.810;2022-11-10T08:18:56;8.10;;;7.30;;
1699;SDS011;847;48.058;7.810;2022-11-10T08:21:26;7.83;;;7.10;;
1699;SDS011;847;48.058;7.810;2022-11-10T08:23:53;9.07;;;7.93;;
1699;SDS011;847;48.058;7.810;2022-11-10T08:26:20;7.97;;;7.17;;
1699;SDS011;847;48.058;7.810;2022-11-10T08:28:47;8.13;;;7.30;;
1699;SDS011;847;48.058;7.810;2022-11-10T08:31:14;6.87;;;6.20;;
1699;SDS011;847;48.058;7.810;2022-11-10T08:33:40;7.10;;;6.37;;
1699;SDS011;847;48.058;7.810;2022-11-10T08:36:09;7.17;;;6.50;;
1699;SDS011;847;48.058;7.810;2022-11-10T08:38:36;6.20;;;5.57;;
1699;SDS011;847;48.058;7.810;2022-11-10T08:41:02;9.03;;;5.60;;
1699;SDS011;847;48.058;7.810;2022-11-10T08:43:31;10.83;;;5.60;;
1699;SDS011;847;48.058;7.810;2022-11-10T08:45:58;7.90;;;5.23;;
1699;SDS011;847;48.058;7.810;2022-11-10T08:48:28;7.27;;;5.77;;
1699;SDS011;847;48.058;7.810;2022-11-10T08:54:02;10.30;;;7.93;;
1699;SDS011;847;48.058;7.810;2022-11-10T08:56:33;11.40;;;7.33;;
1699;SDS011;847;48.058;7.810;2022-11-10T08:59:03;9.10;;;7.13;;
1699;SDS011;847;48.058;7.810;2022-11-10T09:01:44;8.33;;;6.30;;
1699;SDS011;847;48.058;7.810;2022-11-10T09:04:13;6.30;;;5.80;;
1699;SDS011;847;48.058;7.810;2022-11-10T09:06:49;7.40;;;6.33;;
1699;SDS011;847;48.058;7.810;2022-11-10T09:09:25;6.93;;;5.90;;
1699;SDS011;847;48.058;7.810;2022-11-10T09:12:08;10.80;;;6.33;;
1699;SDS011;847;48.058;7.810;2022-11-10T09:14:35;12.20;;;6.43;;
1699;SDS011;847;48.058;7.810;2022-11-10T09:17:02;5.33;;;4.60;;
1699;SDS011;847;48.058;7.810;2022-11-10T09:19:29;5.93;;;5.33;;
1699;SDS011;847;48.058;7.810;2022-11-10T09:21:57;9.37;;;5.67;;
1699;SDS011;847;48.058;7.810;2022-11-10T09:24:24;8.03;;;5.43;;
1699;SDS011;847;48.058;7.810;2022-11-10T09:26:51;6.50;;;5.90;;
1699;SDS011;847;48.058;7.810;2022-11-10T09:29:20;7.03;;;5.73;;
1699;SDS011;847;48.058;7.810;2022-11-10T09:31:47;6.20;;;5.23;;
1699;SDS011;847;48.058;7.810;2022-11-10T09:34:14;6.63;;;5.83;;
1699;SDS011;847;48.058;7.810;2022-11-10T09:36:41;5.87;;;5.03;;
1699;SDS011;847;48.058;7.810;2022-11-10T09:44:48;5.77;;;4.40;;
1699;SDS011;847;48.058;7.810;2022-11-10T09:47:35;5.73;;;5.17;;
1699;SDS011;847;48.058;7.810;2022-11-10T09:50:09;5.00;;;4.50;;
1699;SDS011;847;48.058;7.810;2022-11-10T09:52:44;7.97;;;5.30;;
1699;SDS011;847;48.058;7.810;2022-11-10T09:55:17;8.33;;;4.83;;
1699;SDS011;847;48.058;7.810;2022-11-10T09:57:51;4.87;;;3.67;;
1699;SDS011;847;48.058;7.810;2022-11-10T10:00:26;5.97;;;4.03;;
1699;SDS011;847;48.058;7.810;2022-11-10T10:02:57;7.10;;;3.97;;
1699;SDS011;847;48.058;7.810;2022-11-10T10:05:31;6.23;;;3.37;;
1699;SDS011;847;48.058;7.810;2022-11-10T10:08:04;4.40;;;3.20;;
1699;SDS011;847;48.058;7.810;2022-11-10T10:10:37;4.30;;;3.10;;
1699;SDS011;847;48.058;7.810;2022-11-10T10:13:19;2.83;;;2.53;;
1699;SDS011;847;48.058;7.810;2022-11-10T10:16:01;3.70;;;3.20;;
1699;SDS011;847;48.058;7.810;2022-11-10T10:18:38;3.87;;;3.50;;
1699;SDS011;847;48.058;7.810;2022-11-10T10:21:13;4.53;;;3.33;;
1699;SDS011;847;48.058;7.810;2022-11-10T10:23:55;7.50;;;4.40;;
1699;SDS011;847;48.058;7.810;2022-11-10T10:26:27;3.47;;;3.07;;
1699;SDS011;847;48.058;7.810;2022-11-10T10:28:56;4.10;;;3.20;;
1699;SDS011;847;48.058;7.810;2022-11-10T10:31:31;9.40;;;4.03;;
1699;SDS011;847;48.058;7.810;2022-11-10T10:34:00;4.77;;;4.03;;
1699;SDS011;847;48.058;7.810;2022-11-10T10:36:29;4.50;;;3.43;;
1699;SDS011;847;48.058;7.810;2022-11-10T10:39:00;14.57;;;3.97;;
1699;SDS011;847;48.058;7.810;2022-11-10T10:41:30;8.30;;;3.30;;
1699;SDS011;847;48.058;7.810;2022-11-10T10:43:59;5.80;;;3.10;;
1699;SDS011;847;48.058;7.810;2022-11-10T10:46:27;8.73;;;3.67;;
1699;SDS011;847;48.058;7.810;2022-11-10T10:49:06;5.60;;;3.10;;
1699;SDS011;847;48.058;7.810;2022-11-10T10:51:37;6.50;;;3.77;;
1699;SDS011;847;48.058;7.810;2022-11-10T10:54:04;8.87;;;3.27;;
1699;SDS011;847;48.058;7.810;2022-11-10T10:56:47;4.17;;;2.77;;
1699;SDS011;847;48.058;7.810;2022-11-10T10:59:16;6.27;;;2.93;;
1699;SDS011;847;48.058;7.810;2022-11-10T11:01:46;8.00;;;3.83;;
1699;SDS011;847;48.058;7.810;2022-11-10T11:04:29;6.70;;;3.00;;
1699;SDS011;847;48.058;7.810;2022-11-10T11:06:58;3.67;;;2.13;;
1699;SDS011;847;48.058;7.810;2022-11-10T11:09:27;3.73;;;2.00;;
1699;SDS011;847;48.058;7.810;2022-11-10T11:11:59;8.50;;;2.47;;
1699;SDS011;847;48.058;7.810;2022-11-10T11:14:28;4.40;;;2.00;;
1699;SDS011;847;48.058;7.810;2022-11-10T11:16:57;6.23;;;2.10;;
1699;SDS011;847;48.058;7.810;2022-11-10T11:19:26;5.37;;;2.50;;
1699;SDS011;847;48.058;7.810;2022-11-10T11:21:59;6.00;;;1.73;;
1699;SDS011;847;48.058;7.810;2022-11-10T11:24:36;5.10;;;1.50;;
1699;SDS011;847;48.058;7.810;2022-11-10T11:27:10;2.40;;;1.67;;
1699;SDS011;847;48.058;7.810;2022-11-10T11:29:49;5.30;;;2.10;;
1699;SDS011;847;48.058;7.810;2022-11-10T11:32:55;4.30;;;2.00;;
1699;SDS011;847;48.058;7.810;2022-11-10T11:35:35;5.10;;;1.97;;
1699;SDS011;847;48.058;7.810;2022-11-10T11:38:10;3.13;;;1.10;;
1699;SDS011;847;48.058;7.810;2022-11-10T11:40:42;6.27;;;1.47;;
1699;SDS011;847;48.058;7.810;2022-11-10T11:43:26;3.47;;;1.40;;
1699;SDS011;847;48.058;7.810;2022-11-10T11:46:05;4.50;;;1.40;;
1699;SDS011;847;48.058;7.810;2022-11-10T11:48:51;3.97;;;1.80;;
1699;SDS011;847;48.058;7.810;2022-11-10T11:51:27;2.50;;;1.70;;
1699;SDS011;847;48.058;7.810;2022-11-10T11:56:51;2.53;;;1.30;;
1699;SDS011;847;48.058;7.810;2022-11-10T11:59:35;2.80;;;1.87;;
1699;SDS011;847;48.058;7.810;2022-11-10T12:05:10;3.03;;;1.63;;
1699;SDS011;847;48.058;7.810;2022-11-10T12:07:53;6.40;;;2.10;;
1699;SDS011;847;48.058;7.810;2022-11-10T12:10:30;4.37;;;1.80;;
1699;SDS011;847;48.058;7.810;2022-11-10T12:13:09;2.60;;;1.90;;
1699;SDS011;847;48.058;7.810;2022-11-10T12:15:48;4.77;;;1.60;;
1699;SDS011;847;48.058;7.810;2022-11-10T12:18:29;3.50;;;1.33;;
1699;SDS011;847;48.058;7.810;2022-11-10T12:21:11;2.70;;;1.40;;
1699;SDS011;847;48.058;7.810;2022-11-10T12:23:51;5.57;;;1.77;;
1699;SDS011;847;48.058;7.810;2022-11-10T12:26:33;3.90;;;1.33;;
1699;SDS011;847;48.058;7.810;2022-11-10T12:29:10;7.83;;;1.70;;
1699;SDS011;847;48.058;7.810;2022-11-10T12:31:43;4.17;;;1.23;;
1699;SDS011;847;48.058;7.810;2022-11-10T12:34:13;3.43;;;1.30;;
1699;SDS011;847;48.058;7.810;2022-11-10T12:36:52;2.70;;;1.50;;
1699;SDS011;847;48.058;7.810;2022-11-10T12:39:20;3.97;;;2.20;;
1699;SDS011;847;48.058;7.810;2022-11-10T12:41:52;4.90;;;1.30;;
1699;SDS011;847;48.058;7.810;2022-11-10T12:44:25;2.23;;;1.70;;
1699;SDS011;847;48.058;7.810;2022-11-10T12:50:05;4.93;;;1.67;;
1699;SDS011;847;48.058;7.810;2022-11-10T12:52:45;2.67;;;1.73;;
1699;SDS011;847;48.058;7.810;2022-11-10T12:55:18;2.90;;;1.70;;
1699;SDS011;847;48.058;7.810;2022-11-10T12:57:58;8.87;;;2.10;;
1699;SDS011;847;48.058;7.810;2022-11-10T13:00:26;6.00;;;2.90;;
1699;SDS011;847;48.058;7.810;2022-11-10T13:02:55;6.30;;;2.13;;
1699;SDS011;847;48.058;7.810;2022-11-10T13:05:25;5.40;;;2.50;;
1699;SDS011;847;48.058;7.810;2022-11-10T13:08:12;5.73;;;2.30;;
1699;SDS011;847;48.058;7.810;2022-11-10T13:10:50;2.60;;;1.80;;
1699;SDS011;847;48.058;7.810;2022-11-10T13:13:18;4.80;;;1.80;;
1699;SDS011;847;48.058;7.810;2022-11-10T13:15:47;4.83;;;2.20;;
1699;SDS011;847;48.058;7.810;2022-11-10T13:18:23;5.17;;;2.07;;
1699;SDS011;847;48.058;7.810;2022-11-10T13:24:43;6.97;;;1.93;;
1699;SDS011;847;48.058;7.810;2022-11-10T13:27:12;6.43;;;2.47;;
1699;SDS011;847;48.058;7.810;2022-11-10T13:29:59;4.90;;;2.20;;
1699;SDS011;847;48.058;7.810;2022-11-10T13:32:27;7.03;;;1.90;;
1699;SDS011;847;48.058;7.810;2022-11-10T13:35:42;3.97;;;1.73;;
1699;SDS011;847;48.058;7.810;2022-11-10T13:38:07;4.17;;;2.20;;
1699;SDS011;847;48.058;7.810;2022-11-10T13:41:10;4.10;;;1.90;;
1699;SDS011;847;48.058;7.810;2022-11-10T13:43:47;4.37;;;1.90;;
1699;SDS011;847;48.058;7.810;2022-11-10T13:46:15;7.07;;;2.40;;
1699;SDS011;847;48.058;7.810;2022-11-10T13:51:50;5.13;;;2.27;;
1699;SDS011;847;48.058;7.810;2022-11-10T13:54:52;7.07;;;2.60;;
1699;SDS011;847;48.058;7.810;2022-11-10T13:57:38;4.13;;;2.23;;
1699;SDS011;847;48.058;7.810;2022-11-10T14:00:21;7.57;;;2.50;;
1699;SDS011;847;48.058;7.810;2022-11-10T14:02:51;5.97;;;1.80;;
1699;SDS011;847;48.058;7.810;2022-11-10T14:08:36;5.33;;;2.70;;
1699;SDS011;847;48.058;7.810;2022-11-10T14:11:11;5.93;;;2.43;;
1699;SDS011;847;48.058;7.810;2022-11-10T14:13:41;3.90;;;2.20;;
1699;SDS011;847;48.058;7.810;2022-11-10T14:16:14;5.53;;;2.20;;
1699;SDS011;847;48.058;7.810;2022-11-10T14:18:45;5.43;;;2.47;;
1699;SDS011;847;48.058;7.810;2022-11-10T14:21:20;3.33;;;2.07;;
1699;SDS011;847;48.058;7.810;2022-11-10T14:23:52;3.37;;;2.40;;
1699;SDS011;847;48.058;7.810;2022-11-10T14:26:26;4.97;;;2.57;;
1699;SDS011;847;48.058;7.810;2022-11-10T14:28:56;5.77;;;2.43;;
1699;SDS011;847;48.058;7.810;2022-11-10T14:32:04;5.37;;;1.67;;
1699;SDS011;847;48.058;7.810;2022-11-10T14:34:43;4.43;;;1.50;;
1699;SDS011;847;48.058;7.810;2022-11-10T14:37:23;2.43;;;1.70;;
1699;SDS011;847;48.058;7.810;2022-11-10T14:39:52;7.60;;;1.90;;
1699;SDS011;847;48.058;7.810;2022-11-10T14:42:22;4.97;;;1.80;;
1699;SDS011;847;48.058;7.810;2022-11-10T14:45:03;6.13;;;2.00;;
1699;SDS011;847;48.058;7.810;2022-11-10T14:47:41;2.60;;;1.90;;
1699;SDS011;847;48.058;7.810;2022-11-10T14:50:14;4.40;;;2.20;;
1699;SDS011;847;48.058;7.810;2022-11-10T14:52:44;5.63;;;2.10;;
1699;SDS011;847;48.058;7.810;2022-11-10T14:55:14;2.50;;;1.63;;
1699;SDS011;847;48.058;7.810;2022-11-10T14:57:45;3.87;;;2.07;;
1699;SDS011;847;48.058;7.810;2022-11-10T15:00:17;2.60;;;1.60;;
1699;SDS011;847;48.058;7.810;2022-11-10T15:02:50;5.33;;;2.10;;
1699;SDS011;847;48.058;7.810;2022-11-10T15:05:18;4.90;;;2.20;;
1699;SDS011;847;48.058;7.810;2022-11-10T15:07:45;8.93;;;3.50;;
1699;SDS011;847;48.058;7.810;2022-11-10T15:10:14;6.97;;;4.60;;
1699;SDS011;847;48.058;7.810;2022-11-10T15:12:42;10.37;;;5.60;;
1699;SDS011;847;48.058;7.810;2022-11-10T15:15:19;7.23;;;4.00;;
1699;SDS011;847;48.058;7.810;2022-11-10T15:17:47;5.00;;;4.00;;
1699;SDS011;847;48.058;7.810;2022-11-10T15:20:27;8.37;;;4.50;;
1699;SDS011;847;48.058;7.810;2022-11-10T15:23:03;6.73;;;3.90;;
1699;SDS011;847;48.058;7.810;2022-11-10T15:25:32;8.77;;;4.30;;
1699;SDS011;847;48.058;7.810;2022-11-10T15:28:03;4.83;;;3.77;;
1699;SDS011;847;48.058;7.810;2022-11-10T15:30:46;6.80;;;4.10;;
1699;SDS011;847;48.058;7.810;2022-11-10T15:33:15;9.50;;;4.80;;
1699;SDS011;847;48.058;7.810;2022-11-10T15:35:49;6.47;;;4.10;;
1699;SDS011;847;48.058;7.810;2022-11-10T15:41:08;7.90;;;3.70;;
1699;SDS011;847;48.058;7.810;2022-11-10T15:43:36;7.70;;;3.80;;
1699;SDS011;847;48.058;7.810;2022-11-10T15:46:08;5.13;;;3.17;;
1699;SDS011;847;48.058;7.810;2022-11-10T15:48:38;5.50;;;3.67;;
1699;SDS011;847;48.058;7.810;2022-11-10T15:51:09;6.87;;;3.87;;
1699;SDS011;847;48.058;7.810;2022-11-10T15:53:38;4.77;;;3.27;;
1699;SDS011;847;48.058;7.810;2022-11-10T15:56:06;5.27;;;3.30;;
1699;SDS011;847;48.058;7.810;2022-11-10T15:58:34;6.43;;;4.13;;
1699;SDS011;847;48.058;7.810;2022-11-10T16:01:01;6.73;;;3.80;;
1699;SDS011;847;48.058;7.810;2022-11-10T16:03:28;6.63;;;3.60;;
1699;SDS011;847;48.058;7.810;2022-11-10T16:05:56;10.83;;;5.07;;
1699;SDS011;847;48.058;7.810;2022-11-10T16:08:25;4.13;;;3.83;;
1699;SDS011;847;48.058;7.810;2022-11-10T16:10:54;6.53;;;3.07;;
1699;SDS011;847;48.058;7.810;2022-11-10T16:13:22;6.23;;;3.97;;
1699;SDS011;847;48.058;7.810;2022-11-10T16:15:53;5.83;;;3.07;;
1699;SDS011;847;48.058;7.810;2022-11-10T16:18:21;4.30;;;3.40;;
1699;SDS011;847;48.058;7.810;2022-11-10T16:20:50;6.50;;;3.87;;